Crystal Lake, Illinois
Current Conditions -  °F | °C
As of 9:52 AM on Friday 28 Nov 2014 (Local Time) from KDPA Reporting Station
Few Clouds Few Clouds  
Wind Chill:   Ceiling: Unl
Heat Index: 22°   Visibility: 10mi
Dew Point: 15°   Wind: 15mph
Humidity: 75%   Direction: 160°SSE
Pressure: 30.19"   Gusts: NA
Location:  42.25°N, 88.32°W
Report Text: KDPA 281552Z 16013KT 10SM FEW110 M06/M09 A3019 RMK AO2 SLP238 T10561094
Loading
Personal Weather Stations






























Interactive Weather Map New forecast layout! Learn more

10-Day Weather Forecast

Advertisements
Track Severe Weather on mobile